createdAt,value
2019-05-06T00:01:24.843Z,3.20
2019-05-06T00:03:54.531Z,3.20
2019-05-06T00:06:24.185Z,3.00
2019-05-06T00:08:54.556Z,2.87
2019-05-06T00:11:24.437Z,3.10
2019-05-06T00:13:54.487Z,3.30
2019-05-06T00:16:24.184Z,2.90
2019-05-06T00:18:54.846Z,3.20
2019-05-06T00:21:24.626Z,2.98
2019-05-06T00:23:54.794Z,3.00
2019-05-06T00:26:46.164Z,3.35
2019-05-06T00:29:18.111Z,3.65
2019-05-06T00:31:47.820Z,3.55
2019-05-06T00:34:17.492Z,3.70
2019-05-06T00:36:47.074Z,3.45
2019-05-06T00:39:44.407Z,3.20
2019-05-06T00:42:34.714Z,3.67
2019-05-06T00:45:05.502Z,3.00
2019-05-06T00:47:35.183Z,3.27
2019-05-06T00:50:06.330Z,3.47
2019-05-06T00:52:36.615Z,3.40
2019-05-06T00:55:06.478Z,3.30
2019-05-06T00:57:45.401Z,3.12
2019-05-06T01:00:16.770Z,3.55
2019-05-06T01:02:46.557Z,3.15
2019-05-06T01:05:16.340Z,3.17
2019-05-06T01:07:46.019Z,3.00
2019-05-06T01:10:16.119Z,3.33
2019-05-06T01:13:00.488Z,3.50
2019-05-06T01:15:30.641Z,2.92
2019-05-06T01:18:00.304Z,3.10
2019-05-06T01:20:30.059Z,3.58
2019-05-06T01:22:59.697Z,3.20
2019-05-06T01:25:29.332Z,3.40
2019-05-06T01:27:58.908Z,3.27
2019-05-06T01:30:28.558Z,3.00
2019-05-06T01:32:58.228Z,3.22
2019-05-06T01:35:27.880Z,3.30
2019-05-06T01:38:15.185Z,2.92
2019-05-06T01:41:04.010Z,3.25
2019-05-06T01:43:34.741Z,3.10
2019-05-06T01:46:04.751Z,3.00
2019-05-06T01:48:49.825Z,3.40
2019-05-06T01:51:20.229Z,3.10
2019-05-06T01:53:50.140Z,3.27
2019-05-06T01:56:19.952Z,3.25
2019-05-06T01:58:53.611Z,3.62
2019-05-06T02:01:25.049Z,3.50
2019-05-06T02:03:54.931Z,3.15
2019-05-06T02:06:25.045Z,3.70
2019-05-06T02:08:54.822Z,3.17
2019-05-06T02:11:24.510Z,3.37
2019-05-06T02:13:54.212Z,3.60
2019-05-06T02:16:24.167Z,3.20
2019-05-06T02:18:54.084Z,3.80
2019-05-06T02:21:43.701Z,3.77
2019-05-06T02:24:18.309Z,3.22
2019-05-06T02:26:48.021Z,2.92
2019-05-06T02:29:19.284Z,3.37
2019-05-06T02:32:15.426Z,3.52
2019-05-06T02:34:36.830Z,3.37
2019-05-06T02:37:14.704Z,3.17
2019-05-06T02:39:44.622Z,3.40
2019-05-06T02:42:14.330Z,3.52
2019-05-06T02:44:45.455Z,3.27
2019-05-06T02:47:26.134Z,3.35
2019-05-06T02:49:58.818Z,3.75
2019-05-06T02:52:28.506Z,3.70
2019-05-06T02:54:58.167Z,4.03
2019-05-06T02:57:27.851Z,3.40
2019-05-06T03:00:04.744Z,3.70
2019-05-06T03:02:39.810Z,3.75
2019-05-06T03:05:04.248Z,3.42
2019-05-06T03:07:37.633Z,3.70
2019-05-06T03:10:06.375Z,3.92
2019-05-06T03:12:36.041Z,3.77
2019-05-06T03:15:05.754Z,3.95
2019-05-06T03:17:36.624Z,3.60
2019-05-06T03:20:07.969Z,3.83
2019-05-06T03:22:54.436Z,3.40
2019-05-06T03:25:32.927Z,3.83
2019-05-06T03:28:03.980Z,3.80
2019-05-06T03:30:36.366Z,4.12
2019-05-06T03:35:50.478Z,3.90
2019-05-06T03:38:06.265Z,3.67
2019-05-06T03:40:38.031Z,3.90
2019-05-06T03:43:07.254Z,3.67
2019-05-06T03:46:14.013Z,3.95
2019-05-06T03:48:44.464Z,3.70
2019-05-06T03:51:14.242Z,3.62
2019-05-06T03:53:44.330Z,4.12
2019-05-06T03:56:19.283Z,3.70
2019-05-06T03:58:45.479Z,4.00
2019-05-06T04:01:15.355Z,3.65
2019-05-06T04:03:51.343Z,3.83
2019-05-06T04:06:16.347Z,3.83
2019-05-06T04:08:46.201Z,4.12
2019-05-06T04:11:17.788Z,4.03
2019-05-06T04:13:49.154Z,4.15
2019-05-06T04:16:37.916Z,4.37
2019-05-06T04:19:13.114Z,4.85
2019-05-06T04:21:53.167Z,4.15
2019-05-06T04:24:54.277Z,5.15
2019-05-06T04:27:34.678Z,4.30
2019-05-06T04:30:04.933Z,4.15
2019-05-06T04:32:34.749Z,4.22
2019-05-06T04:35:04.788Z,4.87
2019-05-06T04:37:34.824Z,5.47
2019-05-06T04:40:04.833Z,4.87
2019-05-06T04:42:35.622Z,4.37
2019-05-06T04:45:06.115Z,4.80
2019-05-06T04:47:35.824Z,5.42
2019-05-06T04:50:06.216Z,4.25
2019-05-06T04:52:35.930Z,5.40
2019-05-06T04:55:05.763Z,5.10
2019-05-06T04:57:36.286Z,4.95
2019-05-06T05:00:06.039Z,4.22
2019-05-06T05:02:35.866Z,4.78
2019-05-06T05:05:05.985Z,5.28
2019-05-06T05:07:35.662Z,5.00
2019-05-06T05:10:15.164Z,4.85
2019-05-06T05:12:57.490Z,4.90
2019-05-06T05:15:52.527Z,5.83
2019-05-06T05:18:32.010Z,5.47
2019-05-06T05:21:02.441Z,5.28
2019-05-06T05:23:32.196Z,6.00
2019-05-06T05:26:02.852Z,6.15
2019-05-06T05:28:32.825Z,5.65
2019-05-06T05:31:03.028Z,5.80
2019-05-06T05:33:33.812Z,6.05
2019-05-06T05:36:03.517Z,5.72
2019-05-06T05:38:33.811Z,5.67
2019-05-06T05:41:03.658Z,5.50
2019-05-06T05:43:42.398Z,5.17
2019-05-06T05:46:12.624Z,5.45
2019-05-06T05:49:02.725Z,5.22
2019-05-06T05:51:32.816Z,5.30
2019-05-06T05:54:02.454Z,5.20
2019-05-06T05:56:33.233Z,5.90
2019-05-06T05:59:03.438Z,4.92
2019-05-06T06:01:34.399Z,5.62
2019-05-06T06:04:04.067Z,5.47
2019-05-06T06:06:33.876Z,5.20
2019-05-06T06:09:05.764Z,5.20
2019-05-06T06:11:56.311Z,5.15
2019-05-06T06:14:56.157Z,5.12
2019-05-06T06:17:43.315Z,5.35
2019-05-06T06:20:32.723Z,5.95
2019-05-06T06:23:07.786Z,5.85
2019-05-06T06:25:37.512Z,5.35
2019-05-06T06:28:07.227Z,5.37
2019-05-06T06:30:52.836Z,6.28
2019-05-06T06:33:22.519Z,5.58
2019-05-06T06:36:14.744Z,5.75
2019-05-06T06:39:03.474Z,4.85
2019-05-06T06:41:34.734Z,5.53
2019-05-06T06:44:07.698Z,5.20
2019-05-06T06:46:37.430Z,5.03
2019-05-06T06:49:07.453Z,5.35
2019-05-06T06:51:37.343Z,5.22
2019-05-06T06:54:07.161Z,5.45
2019-05-06T06:56:44.183Z,4.95
2019-05-06T06:59:27.809Z,5.15
2019-05-06T07:02:11.974Z,4.95
2019-05-06T07:04:49.149Z,4.22
2019-05-06T07:07:19.426Z,4.50
2019-05-06T07:09:49.068Z,4.17
2019-05-06T07:12:18.792Z,4.90
2019-05-06T07:14:52.325Z,3.87
2019-05-06T07:17:22.822Z,3.92
2019-05-06T07:19:55.957Z,4.22
2019-05-06T07:22:32.490Z,4.28
2019-05-06T07:25:03.708Z,4.08
2019-05-06T07:27:33.573Z,4.30
2019-05-06T07:30:03.307Z,4.83
2019-05-06T07:32:32.992Z,4.35
2019-05-06T07:35:05.882Z,4.17
2019-05-06T07:37:33.861Z,4.25
2019-05-06T07:40:04.027Z,3.98
2019-05-06T07:42:44.324Z,4.28
2019-05-06T07:45:42.410Z,4.00
2019-05-06T07:48:14.124Z,4.15
2019-05-06T07:50:44.819Z,3.70
2019-05-06T07:53:26.782Z,3.90
2019-05-06T07:55:56.475Z,4.05
2019-05-06T07:58:26.200Z,3.70
2019-05-06T08:00:55.908Z,3.87
2019-05-06T08:03:25.608Z,3.60
2019-05-06T08:05:58.660Z,3.90
2019-05-06T08:08:26.654Z,4.10
2019-05-06T08:10:56.325Z,3.40
2019-05-06T08:13:26.073Z,3.60
2019-05-06T08:15:55.752Z,2.75
2019-05-06T08:18:26.652Z,3.12
2019-05-06T08:20:57.500Z,3.37
2019-05-06T08:23:43.662Z,3.40
2019-05-06T08:26:17.359Z,3.95
2019-05-06T08:28:45.632Z,2.95
2019-05-06T08:31:16.903Z,3.10
2019-05-06T08:33:46.624Z,3.10
2019-05-06T08:36:22.930Z,3.20
2019-05-06T08:39:02.977Z,3.35
2019-05-06T08:41:34.501Z,2.80
2019-05-06T08:44:05.097Z,2.60
2019-05-06T08:46:34.898Z,3.10
2019-05-06T08:49:04.536Z,2.75
2019-05-06T08:52:02.588Z,2.87
2019-05-06T08:54:36.892Z,2.80
2019-05-06T08:57:06.523Z,3.20
2019-05-06T08:59:36.229Z,2.67
2019-05-06T09:02:06.068Z,3.08
2019-05-06T09:04:35.711Z,2.90
2019-05-06T09:07:05.342Z,3.10
2019-05-06T09:09:35.055Z,3.52
2019-05-06T09:12:04.759Z,3.30
2019-05-06T09:14:34.416Z,3.52
2019-05-06T09:17:04.602Z,2.75
2019-05-06T09:19:34.379Z,3.37
2019-05-06T09:22:04.067Z,3.05
2019-05-06T09:24:33.846Z,3.20
2019-05-06T09:27:16.583Z,2.95
2019-05-06T09:29:52.339Z,2.80
2019-05-06T09:32:25.403Z,3.20
2019-05-06T09:34:56.984Z,2.52
2019-05-06T09:37:26.666Z,2.62
2019-05-06T09:39:56.401Z,2.77
2019-05-06T09:42:26.212Z,3.90
2019-05-06T09:44:56.768Z,3.25
2019-05-06T09:47:50.050Z,3.60
2019-05-06T09:50:32.353Z,2.90
2019-05-06T09:53:02.612Z,3.02
2019-05-06T09:55:38.486Z,2.98
2019-05-06T09:58:08.805Z,2.90
2019-05-06T10:00:42.899Z,3.27
2019-05-06T10:03:12.815Z,2.52
2019-05-06T10:05:42.655Z,2.58
2019-05-06T10:08:12.667Z,2.80
2019-05-06T10:10:53.733Z,2.77
2019-05-06T10:13:13.855Z,2.65
2019-05-06T10:15:43.595Z,2.65
2019-05-06T10:18:13.577Z,2.60
2019-05-06T10:20:44.601Z,2.50
2019-05-06T10:23:15.853Z,2.50
2019-05-06T10:25:45.526Z,1.82
2019-05-06T10:28:29.095Z,2.02
2019-05-06T10:30:58.867Z,2.40
2019-05-06T10:33:28.954Z,2.45
2019-05-06T10:36:03.128Z,1.75
2019-05-06T10:38:37.466Z,2.17
2019-05-06T10:41:09.842Z,2.30
2019-05-06T10:43:53.086Z,2.12
2019-05-06T10:46:22.785Z,2.45
2019-05-06T10:48:53.028Z,1.95
2019-05-06T10:51:29.397Z,2.55
2019-05-06T10:53:59.083Z,2.60
2019-05-06T10:57:03.680Z,2.50
2019-05-06T10:59:33.366Z,2.37
2019-05-06T11:02:17.605Z,3.12
2019-05-06T11:04:48.252Z,2.37
2019-05-06T11:07:29.378Z,2.90
2019-05-06T11:09:49.430Z,2.50
2019-05-06T11:12:19.195Z,2.20
2019-05-06T11:14:48.855Z,2.72
2019-05-06T11:17:18.563Z,3.30
2019-05-06T11:19:48.276Z,2.50
2019-05-06T11:22:21.169Z,2.80
2019-05-06T11:24:49.382Z,2.75
2019-05-06T11:27:28.815Z,3.20
2019-05-06T11:29:53.060Z,2.72
2019-05-06T11:32:44.512Z,2.75
2019-05-06T11:35:22.713Z,3.00
2019-05-06T11:38:05.362Z,2.98
2019-05-06T11:40:35.113Z,3.12
2019-05-06T11:43:04.857Z,2.80
2019-05-06T11:45:36.244Z,3.20
2019-05-06T11:48:06.013Z,3.20
2019-05-06T11:50:37.183Z,3.02
2019-05-06T11:53:06.901Z,2.40
2019-05-06T11:55:38.782Z,2.95
2019-05-06T11:58:27.082Z,2.90
2019-05-06T12:00:58.474Z,3.37
2019-05-06T12:03:28.166Z,2.95
2019-05-06T12:05:58.023Z,2.90
2019-05-06T12:08:27.838Z,3.08
2019-05-06T12:10:57.838Z,2.90
2019-05-06T12:13:27.863Z,2.85
2019-05-06T12:15:57.635Z,2.95
2019-05-06T12:18:27.392Z,2.90
2019-05-06T12:21:08.196Z,3.00
2019-05-06T12:23:35.395Z,3.40
2019-05-06T12:26:02.874Z,3.42
2019-05-06T12:28:32.742Z,2.90
2019-05-06T12:31:02.530Z,3.20
2019-05-06T12:33:36.394Z,2.95
2019-05-06T12:36:18.128Z,2.67
2019-05-06T12:39:06.734Z,2.95
2019-05-06T12:41:43.133Z,3.02
2019-05-06T12:44:13.236Z,3.02
2019-05-06T12:46:54.928Z,2.75
2019-05-06T12:49:26.917Z,2.67
2019-05-06T12:51:56.842Z,2.10
2019-05-06T12:54:26.614Z,2.02
2019-05-06T12:56:57.867Z,2.20
2019-05-06T12:59:27.626Z,2.40
2019-05-06T13:01:57.330Z,2.22
2019-05-06T13:04:45.997Z,2.47
2019-05-06T13:06:58.429Z,2.75
2019-05-06T13:09:28.408Z,3.37
2019-05-06T13:11:58.595Z,3.27
2019-05-06T13:14:28.507Z,3.00
2019-05-06T13:16:58.591Z,2.83
2019-05-06T13:19:28.471Z,2.42
2019-05-06T13:21:58.533Z,2.70
2019-05-06T13:24:28.458Z,3.00
2019-05-06T13:26:59.100Z,2.77
2019-05-06T13:29:35.165Z,3.02
2019-05-06T13:32:06.348Z,2.85
2019-05-06T13:34:37.812Z,2.75
2019-05-06T13:37:07.641Z,2.62
2019-05-06T13:39:38.836Z,2.35
2019-05-06T13:42:09.203Z,2.70
2019-05-06T13:44:38.923Z,2.60
2019-05-06T13:47:12.127Z,2.30
2019-05-06T13:49:55.244Z,1.98
2019-05-06T13:52:33.612Z,2.02
2019-05-06T13:55:03.356Z,2.35
2019-05-06T13:57:33.089Z,2.58
2019-05-06T14:00:03.281Z,2.92
2019-05-06T14:02:55.416Z,2.47
2019-05-06T14:05:25.093Z,1.90
2019-05-06T14:07:54.831Z,2.37
2019-05-06T14:10:24.542Z,3.02
2019-05-06T14:12:54.257Z,2.10
2019-05-06T14:15:23.956Z,2.60
2019-05-06T14:17:53.706Z,3.00
2019-05-06T14:20:23.366Z,2.55
2019-05-06T14:22:53.193Z,2.22
2019-05-06T14:25:43.366Z,2.35
2019-05-06T14:28:35.418Z,2.35
2019-05-06T14:31:17.196Z,2.50
2019-05-06T14:33:46.907Z,2.67
2019-05-06T14:36:16.589Z,2.35
2019-05-06T14:38:46.342Z,2.20
2019-05-06T14:41:18.893Z,2.37
2019-05-06T14:43:48.571Z,2.47
2019-05-06T14:46:18.361Z,2.30
2019-05-06T14:48:48.123Z,2.35
2019-05-06T14:51:17.824Z,2.62
2019-05-06T14:53:47.626Z,2.02
2019-05-06T14:56:23.579Z,2.33
2019-05-06T14:59:12.667Z,2.22
2019-05-06T15:01:45.537Z,2.40
2019-05-06T15:04:14.255Z,2.90
2019-05-06T15:06:44.284Z,2.40
2019-05-06T15:09:14.542Z,2.47
2019-05-06T15:11:44.707Z,2.80
2019-05-06T15:14:14.592Z,2.95
2019-05-06T15:16:44.628Z,2.50
2019-05-06T15:19:14.642Z,2.70
2019-05-06T15:21:44.313Z,2.42
2019-05-06T15:24:14.684Z,2.62
2019-05-06T15:26:44.677Z,3.00
2019-05-06T15:29:14.343Z,2.55
2019-05-06T15:31:58.456Z,2.77
2019-05-06T15:34:47.124Z,1.95
2019-05-06T15:37:21.560Z,2.30
2019-05-06T15:39:52.286Z,2.40
2019-05-06T15:42:22.551Z,2.10
2019-05-06T15:44:52.261Z,2.30
2019-05-06T15:47:22.680Z,2.37
2019-05-06T15:49:55.562Z,2.20
2019-05-06T15:52:25.310Z,2.87
2019-05-06T15:55:14.045Z,2.60
2019-05-06T15:57:43.831Z,2.67
2019-05-06T16:00:15.237Z,2.35
2019-05-06T16:02:44.932Z,2.75
2019-05-06T16:05:20.339Z,2.98
2019-05-06T16:07:46.043Z,2.42
2019-05-06T16:10:16.260Z,3.12
2019-05-06T16:12:49.060Z,2.20
2019-05-06T16:15:24.482Z,2.80
2019-05-06T16:17:53.521Z,2.50
2019-05-06T16:20:23.189Z,3.10
2019-05-06T16:22:59.994Z,2.80
2019-05-06T16:25:29.771Z,2.17
2019-05-06T16:27:59.448Z,2.52
2019-05-06T16:30:29.318Z,3.25
2019-05-06T16:32:59.165Z,2.90
2019-05-06T16:35:28.877Z,2.60
2019-05-06T16:37:58.693Z,2.55
2019-05-06T16:40:28.416Z,2.40
2019-05-06T16:42:58.224Z,2.80
2019-05-06T16:45:27.957Z,2.70
2019-05-06T16:47:58.634Z,2.67
2019-05-06T16:50:29.749Z,2.95
2019-05-06T16:52:59.890Z,2.70
2019-05-06T16:55:47.655Z,2.62
2019-05-06T16:58:19.226Z,2.83
2019-05-06T17:00:49.040Z,3.02
2019-05-06T17:03:27.187Z,2.40
2019-05-06T17:06:23.130Z,2.52
2019-05-06T17:08:53.182Z,2.85
2019-05-06T17:11:30.583Z,2.80
2019-05-06T17:13:54.276Z,2.72
2019-05-06T17:16:24.077Z,3.00
2019-05-06T17:18:56.516Z,2.77
2019-05-06T17:21:25.236Z,2.65
2019-05-06T17:23:55.246Z,2.40
2019-05-06T17:26:25.167Z,4.87
2019-05-06T17:28:59.534Z,4.85
2019-05-06T17:31:38.335Z,2.85
2019-05-06T17:34:09.234Z,2.72
2019-05-06T17:36:42.107Z,2.65
2019-05-06T17:39:11.769Z,8.40
2019-05-06T17:41:48.939Z,3.15
2019-05-06T17:44:16.868Z,2.50
2019-05-06T17:46:59.236Z,3.10
2019-05-06T17:49:29.419Z,2.60
2019-05-06T17:52:12.717Z,3.27
2019-05-06T17:54:43.052Z,2.87
2019-05-06T17:57:12.869Z,2.80
2019-05-06T17:59:42.586Z,2.60
2019-05-06T18:02:19.326Z,3.17
2019-05-06T18:04:53.713Z,3.30
2019-05-06T18:07:23.483Z,2.55
2019-05-06T18:09:53.427Z,2.80
2019-05-06T18:12:23.402Z,4.00
2019-05-06T18:14:53.479Z,2.70
2019-05-06T18:17:24.486Z,2.77
2019-05-06T18:19:55.327Z,3.10
2019-05-06T18:22:25.067Z,2.45
2019-05-06T18:24:55.281Z,2.92
2019-05-06T18:27:25.065Z,2.60
2019-05-06T18:29:55.072Z,2.30
2019-05-06T18:32:25.902Z,2.35
2019-05-06T18:34:55.825Z,2.98
2019-05-06T18:37:25.717Z,2.77
2019-05-06T18:39:55.951Z,2.42
2019-05-06T18:42:25.887Z,2.90
2019-05-06T18:44:55.790Z,2.60
2019-05-06T18:47:25.752Z,2.72
2019-05-06T18:49:55.672Z,3.05
2019-05-06T18:52:25.605Z,2.72
2019-05-06T18:54:55.589Z,3.00
2019-05-06T18:57:25.576Z,2.30
2019-05-06T18:59:56.008Z,2.92
2019-05-06T19:02:26.855Z,2.98
2019-05-06T19:05:24.896Z,3.55
2019-05-06T19:07:54.130Z,2.90
2019-05-06T19:10:33.385Z,2.77
2019-05-06T19:13:03.587Z,3.22
2019-05-06T19:15:37.221Z,3.22
2019-05-06T19:18:07.319Z,3.52
2019-05-06T19:20:42.351Z,3.83
2019-05-06T19:23:13.065Z,3.27
2019-05-06T19:25:43.189Z,4.12
2019-05-06T19:28:14.301Z,4.00
2019-05-06T19:30:44.534Z,4.95
2019-05-06T19:33:14.898Z,4.25
2019-05-06T19:35:45.170Z,4.22
2019-05-06T19:38:15.088Z,4.10
2019-05-06T19:40:45.080Z,4.47
2019-05-06T19:43:18.859Z,5.83
2019-05-06T19:45:49.593Z,4.50
2019-05-06T19:48:22.191Z,4.90
2019-05-06T19:50:52.841Z,5.60
2019-05-06T19:53:23.664Z,6.15
2019-05-06T19:55:54.904Z,4.87
2019-05-06T19:58:24.971Z,5.30
2019-05-06T20:00:56.385Z,3.87
2019-05-06T20:03:26.452Z,3.80
2019-05-06T20:06:09.849Z,3.83
2019-05-06T20:08:48.810Z,4.30
2019-05-06T20:11:40.060Z,3.85
2019-05-06T20:14:09.873Z,3.83
2019-05-06T20:16:42.118Z,3.50
2019-05-06T20:19:14.050Z,4.00
2019-05-06T20:21:43.243Z,3.58
2019-05-06T20:24:13.103Z,3.92
2019-05-06T20:26:43.137Z,3.50
2019-05-06T20:29:13.240Z,3.37
2019-05-06T20:31:43.141Z,4.12
2019-05-06T20:34:13.032Z,3.45
2019-05-06T20:36:43.867Z,3.40
2019-05-06T20:39:16.300Z,4.15
2019-05-06T20:41:46.644Z,3.87
2019-05-06T20:44:16.400Z,4.20
2019-05-06T20:46:46.248Z,3.87
2019-05-06T20:49:16.017Z,4.35
2019-05-06T20:51:45.781Z,3.20
2019-05-06T20:54:17.437Z,3.27
2019-05-06T20:56:47.084Z,3.77
2019-05-06T20:59:17.024Z,4.40
2019-05-06T21:01:46.802Z,4.30
2019-05-06T21:04:16.553Z,3.47
2019-05-06T21:06:46.267Z,3.50
2019-05-06T21:09:15.971Z,3.77
2019-05-06T21:11:45.726Z,3.75
2019-05-06T21:14:15.650Z,3.37
2019-05-06T21:16:47.991Z,3.77
2019-05-06T21:19:16.710Z,3.67
2019-05-06T21:21:46.449Z,3.40
2019-05-06T21:24:16.101Z,3.55
2019-05-06T21:26:46.407Z,3.70
2019-05-06T21:29:16.462Z,3.35
2019-05-06T21:31:46.150Z,4.60
2019-05-06T21:34:15.971Z,3.45
2019-05-06T21:36:45.669Z,3.47
2019-05-06T21:39:15.323Z,3.95
2019-05-06T21:41:45.004Z,3.50
2019-05-06T21:44:14.684Z,3.62
2019-05-06T21:46:44.342Z,4.10
2019-05-06T21:49:14.018Z,3.25
2019-05-06T21:51:43.686Z,3.27
2019-05-06T21:54:13.394Z,4.40
2019-05-06T21:56:43.159Z,3.52
2019-05-06T21:59:13.098Z,3.67
2019-05-06T22:01:43.241Z,4.03
2019-05-06T22:04:13.148Z,4.35
2019-05-06T22:06:45.550Z,4.30
2019-05-06T22:09:15.645Z,5.58
2019-05-06T22:11:45.380Z,3.90
2019-05-06T22:14:15.047Z,7.70
2019-05-06T22:16:44.731Z,9.85
2019-05-06T22:19:14.424Z,8.68
2019-05-06T22:22:03.384Z,5.12
2019-05-06T22:24:52.526Z,8.60
2019-05-06T22:27:21.964Z,6.40
2019-05-06T22:29:52.336Z,5.55
2019-05-06T22:32:23.169Z,4.62
2019-05-06T22:34:53.163Z,4.87
2019-05-06T22:37:22.904Z,4.30
2019-05-06T22:39:52.881Z,6.47
2019-05-06T22:42:24.904Z,6.33
2019-05-06T22:44:53.961Z,7.12
2019-05-06T22:47:23.682Z,7.05
2019-05-06T22:49:54.500Z,5.97
2019-05-06T22:52:24.153Z,6.95
2019-05-06T22:54:53.791Z,6.42
2019-05-06T22:57:23.642Z,6.20
2019-05-06T22:59:53.267Z,7.67
2019-05-06T23:02:48.184Z,7.35
2019-05-06T23:05:17.850Z,7.35
2019-05-06T23:07:47.558Z,7.50
2019-05-06T23:10:17.234Z,8.08
2019-05-06T23:12:46.937Z,8.50
2019-05-06T23:15:17.170Z,6.33
2019-05-06T23:17:46.886Z,5.20
2019-05-06T23:20:16.744Z,4.67
2019-05-06T23:23:12.826Z,5.08
2019-05-06T23:25:43.630Z,5.00
2019-05-06T23:28:13.324Z,4.22
2019-05-06T23:30:43.020Z,4.50
2019-05-06T23:33:14.006Z,4.90
2019-05-06T23:35:44.006Z,4.37
2019-05-06T23:38:33.802Z,4.45
2019-05-06T23:41:21.946Z,4.97
2019-05-06T23:44:09.655Z,4.65
2019-05-06T23:46:57.359Z,5.17
2019-05-06T23:49:44.856Z,4.60
2019-05-06T23:52:32.370Z,4.62
2019-05-06T23:55:21.589Z,4.72
2019-05-06T23:57:52.490Z,4.17
